KBUF/BUF METAR and TAF weather

Enter ICAO airport designator
Station Type Date Time Source
KBUF METAR 2022/01/26 13:54 UTC NOAA

KBUF 261354Z 08007KT 1/2SM R23/3000V4500FT SN VV014 M10/M13 A3034 RMK AO2 SLP288 SNINCR 1/14 P0000 T11001133


Station Type Date Time Source
KBUF Decoded METAR 2022/01/26 13:54 UTC NOAA

GREATER BUFFALO INTERNATIONAL AIRPORT , NY, United States (KBUF) 42-56N 078-44W 225M
Jan 26, 2022 - 08:54 AM EST / 2022.01.26 1354 UTC
Wind: from the E (080 degrees) at 8 MPH (7 KT) (direction variable):0
Visibility: 1/2 mile(s):0
Sky conditions: obscured
Weather: snow; Snow increasing rapidly, 1 inch(es) fell this hour, 14 inch(es) now on the ground
Precipitation last hour: A trace
Temperature: 14.0 F (-10.0 C)
Windchill: 3 F (-16 C):1
Dew Point: 8.1 F (-13.3 C)
Relative Humidity: 76%
Pressure (altimeter): 30.34 in. Hg (1027 hPa)
ob: KBUF 261354Z 08007KT 1/2SM R23/3000V4500FT SN VV014 M10/M13 A3034 RMK AO2 SLP288 SNINCR 1/14 P0000 T11001133
cycle: 14

Station Type Date Time Source
KBUF TAF 2022/01/26 14:45 UTC NOAA

TAF
AMD KBUF 261343Z 2614/2712 08007KT 1/2SM SN VV013
FM261500 08007KT 1SM -SN OVC018
FM261800 27006KT P6SM VCSH OVC025
FM262300 21004KT P6SM BKN060
FM270000 20007KT P6SM BKN035
FM270600 20010KT P6SM SCT060

Example: see airport list